Time;durP1;ratioP1;P1;durP2;ratioP2;P2;SDS_P1;SDS_P2;PMS_P1;PMS_P2;Temp;Humidity;BMP_temperature;BMP_pressure;BME280_temperature;BME280_humidity;BME280_pressure;Samples;Min_cycle;Max_cycle;Signal;HPM_P1;HPM_P2
2021/09/19 00:00:41;;;;;;;0.60;0.60;;;;;;;13.34;68.61;98843.91;5074713;28;42008;-83
2021/09/19 00:03:10;;;;;;;0.70;0.70;;;;;;;13.22;68.89;98824.41;5125340;27;43588;-82
2021/09/19 00:05:38;;;;;;;0.87;0.87;;;;;;;13.18;69.03;98816.75;5091038;28;40682;-84
2021/09/19 00:08:05;;;;;;;1.40;0.73;;;;;;;13.27;68.95;98832.88;5089500;28;41895;-82
2021/09/19 00:10:33;;;;;;;0.67;0.67;;;;;;;13.26;69.14;98831.16;5071443;28;43166;-83
2021/09/19 00:13:01;;;;;;;0.80;0.80;;;;;;;13.23;68.94;98830.53;5088592;28;42375;-82
2021/09/19 00:15:29;;;;;;;0.60;0.60;;;;;;;13.22;69.29;98834.19;5088820;28;40006;-83
2021/09/19 00:17:56;;;;;;;0.83;0.70;;;;;;;13.20;69.42;98826.31;5087589;28;42640;-81
2021/09/19 00:20:26;;;;;;;1.13;0.83;;;;;;;13.19;69.68;98823.78;5090425;28;42930;-85
2021/09/19 00:22:54;;;;;;;0.60;0.60;;;;;;;13.17;69.84;98823.88;5073275;28;41109;-83
2021/09/19 00:25:22;;;;;;;1.37;1.20;;;;;;;13.16;69.88;98829.31;5091339;28;39036;-81
2021/09/19 00:27:50;;;;;;;0.80;0.80;;;;;;;13.15;70.31;98824.94;5072941;28;40850;-84
2021/09/19 00:30:17;;;;;;;1.80;0.87;;;;;;;13.08;69.74;98819.22;5091237;28;43041;-83
2021/09/19 00:32:45;;;;;;;1.00;0.90;;;;;;;13.11;69.76;98828.75;5073720;28;41790;-83
2021/09/19 00:35:13;;;;;;;1.57;0.70;;;;;;;13.11;69.93;98828.75;5089233;28;40201;-83
2021/09/19 00:37:44;;;;;;;0.93;0.90;;;;;;;13.11;69.96;98821.63;5089447;28;40985;-81
2021/09/19 00:40:13;;;;;;;0.60;0.40;;;;;;;13.06;69.60;98818.47;5071102;28;41716;-81
2021/09/19 00:42:41;;;;;;;0.63;0.63;;;;;;;12.97;69.70;98803.19;5087153;28;42890;-82
2021/09/19 00:45:12;;;;;;;0.67;0.67;;;;;;;13.06;69.85;98822.94;5091347;28;40909;-82
2021/09/19 00:47:40;;;;;;;0.60;0.60;;;;;;;13.05;69.68;98821.25;5088990;28;42748;-82
2021/09/19 00:50:11;;;;;;;1.17;0.63;;;;;;;13.02;70.14;98816.97;5090254;28;42823;-83
2021/09/19 00:52:40;;;;;;;0.93;0.80;;;;;;;13.00;70.05;98812.75;5089678;28;42343;-83
2021/09/19 00:55:11;;;;;;;1.47;1.03;;;;;;;12.97;70.83;98805.84;5073643;28;40177;-82
2021/09/19 00:57:40;;;;;;;1.03;0.60;;;;;;;12.64;70.73;98757.78;5087478;28;41735;-84
2021/09/19 01:00:10;;;;;;;1.57;0.80;;;;;;;13.02;70.38;98818.78;5089793;28;42763;-83
2021/09/19 01:02:38;;;;;;;0.60;0.60;;;;;;;12.99;70.77;98806.56;5088876;28;41520;-83
2021/09/19 01:05:08;;;;;;;1.30;0.80;;;;;;;12.97;71.17;98812.97;5090609;28;40558;-80
2021/09/19 01:07:36;;;;;;;0.57;0.57;;;;;;;12.95;71.46;98807.78;5087746;28;41630;-80
2021/09/19 01:10:04;;;;;;;1.40;0.73;;;;;;;12.82;71.20;98791.03;5073758;28;41707;-84
2021/09/19 01:12:34;;;;;;;1.07;0.80;;;;;;;12.90;71.80;98807.25;5089523;28;42493;-84
2021/09/19 01:15:02;;;;;;;0.80;0.80;;;;;;;12.90;72.04;98802.78;5090016;28;41204;-79
2021/09/19 01:17:30;;;;;;;1.73;1.00;;;;;;;12.88;72.86;98801.19;5088871;28;40754;-81
2021/09/19 01:19:59;;;;;;;1.03;0.93;;;;;;;12.88;73.09;98803.84;5073513;28;41559;-80
2021/09/19 01:22:33;;;;;;;0.73;0.73;;;;;;;12.87;73.01;98803.00;5122683;27;43174;-80
2021/09/19 01:25:06;;;;;;;3.00;1.00;;;;;;;12.87;73.83;98804.81;5088562;28;40236;-81
2021/09/19 01:27:34;;;;;;;0.93;0.73;;;;;;;12.78;73.68;98786.88;5089005;28;42049;-80
2021/09/19 01:30:03;;;;;;;1.03;0.93;;;;;;;12.85;73.59;98801.44;5088645;28;43873;-81
2021/09/19 01:32:31;;;;;;;0.90;0.77;;;;;;;12.84;73.31;98803.25;5071550;28;41562;-83
2021/09/19 01:34:59;;;;;;;0.90;0.77;;;;;;;12.88;73.38;98807.34;5071040;28;39928;-83
2021/09/19 01:37:26;;;;;;;1.40;1.00;;;;;;;12.92;73.41;98797.34;5072614;28;40725;-83
2021/09/19 01:39:54;;;;;;;1.13;1.03;;;;;;;12.94;73.78;98787.47;5073121;28;43043;-84
2021/09/19 01:42:27;;;;;;;1.00;0.90;;;;;;;12.94;73.97;98774.19;5090941;28;42366;-81
2021/09/19 01:44:55;;;;;;;1.30;0.70;;;;;;;12.94;73.48;98774.19;5072121;28;40017;-82
2021/09/19 01:47:22;;;;;;;0.80;0.80;;;;;;;12.94;74.13;98782.16;5069444;28;42553;-82
2021/09/19 01:49:51;;;;;;;0.80;0.80;;;;;;;12.94;73.55;98776.84;5087457;28;42914;-79
2021/09/19 01:52:21;;;;;;;1.00;0.90;;;;;;;12.92;73.67;98774.28;5086377;28;41826;-82
2021/09/19 01:54:49;;;;;;;0.70;0.70;;;;;;;12.81;73.81;98760.09;5083828;28;39076;-83
2021/09/19 01:57:20;;;;;;;0.73;0.73;;;;;;;12.77;73.77;98758.59;5087459;28;41071;-80
2021/09/19 01:59:51;;;;;;;1.23;0.90;;;;;;;12.73;74.83;98751.84;5072456;28;41845;-80
2021/09/19 02:02:22;;;;;;;0.73;0.73;;;;;;;12.81;74.48;98770.72;5089323;28;42467;-81
2021/09/19 02:04:51;;;;;;;0.67;0.67;;;;;;;12.80;74.85;98767.22;5089201;28;40150;-81
2021/09/19 02:07:19;;;;;;;0.70;0.70;;;;;;;12.76;76.11;98752.44;5071055;28;40947;-82
2021/09/19 02:09:47;;;;;;;1.17;1.00;;;;;;;12.80;75.69;98767.22;5089949;28;42781;-86
2021/09/19 02:12:15;;;;;;;0.73;0.70;;;;;;;12.80;76.02;98761.91;5087483;28;42335;-83
2021/09/19 02:14:43;;;;;;;0.80;0.80;;;;;;;12.74;75.89;98750.84;5089282;28;40982;-85
2021/09/19 02:17:13;;;;;;;0.80;0.80;;;;;;;12.80;75.77;98763.69;5070483;28;41994;-80
2021/09/19 02:19:42;;;;;;;1.43;1.33;;;;;;;12.79;76.00;98762.00;5086030;28;41795;-82
2021/09/19 02:22:11;;;;;;;0.70;0.60;;;;;;;12.68;75.42;98743.34;5089847;28;42412;-84
2021/09/19 02:24:40;;;;;;;0.87;0.70;;;;;;;12.74;75.34;98753.50;5071541;28;40042;-82
2021/09/19 02:27:08;;;;;;;1.17;0.57;;;;;;;12.76;75.11;98751.59;5088880;28;40530;-83
2021/09/19 02:29:35;;;;;;;0.60;0.60;;;;;;;12.73;74.80;98751.84;5088893;28;42819;-82
2021/09/19 02:32:03;;;;;;;0.73;0.73;;;;;;;12.71;74.82;98753.75;5090127;28;42282;-81
2021/09/19 02:34:33;;;;;;;0.80;0.80;;;;;;;12.59;74.76;98739.56;5087181;28;40058;-82
2021/09/19 02:37:01;;;;;;;0.53;0.53;;;;;;;12.64;74.97;98747.16;5085274;28;41846;-82
2021/09/19 02:39:29;;;;;;;0.70;0.70;;;;;;;12.50;74.85;98735.72;5089867;28;43036;-83
2021/09/19 02:41:57;;;;;;;0.70;0.70;;;;;;;12.59;75.04;98748.38;5069872;28;42488;-82
2021/09/19 02:44:24;;;;;;;0.67;0.67;;;;;;;12.56;74.74;98740.63;5085098;28;39108;-82
2021/09/19 02:46:52;;;;;;;0.93;0.90;;;;;;;12.42;74.96;98716.84;5087988;28;42627;-84
2021/09/19 02:49:20;;;;;;;1.33;1.00;;;;;;;12.50;74.62;98730.41;5088421;28;44069;-82
2021/09/19 02:51:49;;;;;;;0.73;0.73;;;;;;;12.39;74.92;98717.06;5070640;28;42220;-81
2021/09/19 02:54:17;;;;;;;1.13;1.00;;;;;;;12.47;74.61;98735.13;5087835;28;39688;-83
2021/09/19 02:56:44;;;;;;;0.77;0.77;;;;;;;12.44;74.89;98736.19;5073657;28;40669;-84
2021/09/19 02:59:12;;;;;;;0.60;0.60;;;;;;;12.43;74.81;98734.50;5091467;28;42479;-81
2021/09/19 03:01:41;;;;;;;0.67;0.67;;;;;;;12.43;74.66;98744.25;5074702;28;41147;-84
2021/09/19 03:04:09;;;;;;;2.97;1.03;;;;;;;12.41;74.62;98732.91;5090849;28;40101;-83
2021/09/19 03:06:37;;;;;;;0.70;0.70;;;;;;;12.26;74.73;98705.63;5091482;28;41587;-86
2021/09/19 03:09:06;;;;;;;1.00;0.90;;;;;;;12.28;74.45;98714.34;5109078;28;43192;-80
2021/09/19 03:11:35;;;;;;;0.67;0.67;;;;;;;12.26;74.75;98715.41;5108911;28;42248;-80
2021/09/19 03:14:02;;;;;;;1.10;0.80;;;;;;;12.23;74.80;98711.19;5111068;28;39193;-79
2021/09/19 03:16:30;;;;;;;0.80;0.50;;;;;;;12.28;74.65;98724.97;5111458;28;42035;-82
2021/09/19 03:18:58;;;;;;;0.77;0.77;;;;;;;12.17;74.25;98716.91;5111782;28;43314;-81
2021/09/19 03:21:25;;;;;;;0.67;0.67;;;;;;;12.21;74.43;98729.03;5085902;28;42421;-85
2021/09/19 03:23:53;;;;;;;1.13;0.90;;;;;;;12.20;74.58;98727.31;5094575;28;38876;-82
2021/09/19 03:26:23;;;;;;;1.00;0.77;;;;;;;12.15;74.92;98716.16;5095552;28;43043;-83
2021/09/19 03:28:51;;;;;;;0.70;0.70;;;;;;;12.15;75.63;98711.72;5112061;28;42077;-81
2021/09/19 03:31:18;;;;;;;0.73;0.73;;;;;;;12.15;75.54;98713.50;5096047;28;42233;-82
2021/09/19 03:33:46;;;;;;;1.00;0.90;;;;;;;12.14;76.20;98715.31;5091467;28;40172;-81
2021/09/19 03:36:14;;;;;;;1.37;1.10;;;;;;;12.14;76.56;98717.13;5090972;28;43457;-84
2021/09/19 03:38:42;;;;;;;0.70;0.70;;;;;;;12.15;76.29;98713.50;5074987;28;42243;-85
2021/09/19 03:41:10;;;;;;;1.10;1.00;;;;;;;12.16;76.58;98715.22;5089417;28;41566;-82
2021/09/19 03:43:39;;;;;;;2.07;1.10;;;;;;;12.18;76.66;98708.00;5091801;28;40106;-79
2021/09/19 03:46:07;;;;;;;1.20;1.10;;;;;;;12.21;76.54;98707.78;5074166;28;41596;-83
2021/09/19 03:48:35;;;;;;;1.87;1.43;;;;;;;12.17;76.57;98691.22;5091374;28;42172;-84
2021/09/19 03:51:03;;;;;;;1.50;1.40;;;;;;;12.15;76.94;98679.00;5090610;28;43068;-81
2021/09/19 03:53:31;;;;;;;1.60;1.20;;;;;;;12.39;77.52;98701.13;5093273;28;40455;-83
2021/09/19 03:55:58;;;;;;;0.90;0.77;;;;;;;12.38;77.03;98690.63;5074686;28;40771;-80
2021/09/19 03:58:26;;;;;;;1.00;0.90;;;;;;;12.49;77.13;98696.00;5091099;28;42891;-85
2021/09/19 04:00:56;;;;;;;1.30;1.20;;;;;;;12.53;76.83;98698.34;5091433;28;42800;-84
2021/09/19 04:03:23;;;;;;;1.97;1.40;;;;;;;12.49;76.86;98691.53;5074497;28;40029;-84
2021/09/19 04:05:51;;;;;;;1.10;0.90;;;;;;;12.51;77.29;98705.56;5092025;28;41640;-82
2021/09/19 04:08:18;;;;;;;1.30;1.20;;;;;;;12.47;77.50;98693.47;5090105;28;43829;-80
2021/09/19 04:10:46;;;;;;;1.53;1.00;;;;;;;12.47;77.45;98703.25;5089681;28;43201;-80
2021/09/19 04:13:14;;;;;;;1.10;1.00;;;;;;;12.45;77.40;98698.06;5090544;28;40150;-81
2021/09/19 04:15:42;;;;;;;1.50;1.03;;;;;;;12.42;77.62;98700.91;5091303;28;41763;-81
2021/09/19 04:18:11;;;;;;;1.57;1.00;;;;;;;12.41;77.88;98699.22;5074194;28;41874;-81
2021/09/19 04:20:38;;;;;;;1.37;1.00;;;;;;;12.41;77.43;98699.22;5090856;28;42403;-80
2021/09/19 04:23:06;;;;;;;3.20;1.10;;;;;;;12.40;78.27;98696.66;5091162;28;40222;-83
2021/09/19 04:25:34;;;;;;;1.63;1.10;;;;;;;12.40;77.60;98701.97;5090412;28;42565;-81
2021/09/19 04:28:02;;;;;;;2.87;1.47;;;;;;;12.39;78.21;98700.28;5091106;28;42057;-83
2021/09/19 04:30:30;;;;;;;1.67;1.27;;;;;;;12.38;78.03;98698.59;5091309;28;43102;-80
2021/09/19 04:32:58;;;;;;;1.00;0.90;;;;;;;12.37;77.84;98700.38;5090389;28;40883;-83
2021/09/19 04:35:27;;;;;;;2.77;1.20;;;;;;;12.08;77.76;98640.59;5073397;28;41815;-82
2021/09/19 04:37:54;;;;;;;1.80;1.70;;;;;;;12.31;78.01;98684.91;5072652;28;42965;-84
2021/09/19 04:40:22;;;;;;;2.33;1.40;;;;;;;12.26;78.26;98676.41;5090070;28;42276;-84
2021/09/19 04:42:49;;;;;;;1.03;0.90;;;;;;;12.36;78.24;98690.75;5073202;28;40280;-80
2021/09/19 04:45:17;;;;;;;1.53;1.43;;;;;;;12.34;78.18;98697.97;5090061;28;41838;-83
2021/09/19 04:47:44;;;;;;;1.47;1.30;;;;;;;12.33;78.33;98690.97;5073124;28;41923;-85
2021/09/19 04:50:12;;;;;;;1.77;1.13;;;;;;;12.32;78.15;98685.78;5089702;28;42107;-85
2021/09/19 04:52:41;;;;;;;2.53;1.30;;;;;;;12.32;78.29;98689.28;5069403;28;39461;-82
2021/09/19 04:55:10;;;;;;;1.70;1.10;;;;;;;12.32;78.25;98683.97;5053030;28;41642;-83
2021/09/19 04:57:38;;;;;;;1.30;1.17;;;;;;;12.30;78.77;98685.03;5053138;28;42597;-85
2021/09/19 05:00:07;;;;;;;1.93;1.43;;;;;;;12.16;78.55;98673.59;5089322;28;42102;-83
2021/09/19 05:02:34;;;;;;;1.93;1.50;;;;;;;12.32;78.18;98702.56;5077391;28;38938;-81
2021/09/19 05:05:02;;;;;;;2.13;1.17;;;;;;;12.24;78.17;98695.13;5090261;28;41044;-83
2021/09/19 05:07:30;;;;;;;1.37;0.97;;;;;;;12.33;78.44;98704.25;5088987;28;43009;-85
2021/09/19 05:09:59;;;;;;;1.63;1.43;;;;;;;12.40;78.51;98710.81;5089969;28;42296;-83
2021/09/19 05:12:27;;;;;;;2.07;1.87;;;;;;;12.49;77.92;98704.81;5072892;28;40301;-82
2021/09/19 05:14:55;;;;;;;1.10;1.00;;;;;;;12.52;77.89;98696.63;5090305;28;40800;-82
2021/09/19 05:17:23;;;;;;;2.60;1.80;;;;;;;12.61;78.07;98691.63;5089342;28;43138;-83
2021/09/19 05:19:50;;;;;;;0.90;0.87;;;;;;;12.80;77.50;98699.91;5088240;28;42353;-85
2021/09/19 05:22:18;;;;;;;1.67;1.27;;;;;;;12.87;77.61;98701.16;5088589;28;39859;-82
2021/09/19 05:24:46;;;;;;;1.87;1.17;;;;;;;12.96;77.71;98705.81;5089304;28;40598;-83
2021/09/19 05:27:15;;;;;;;1.90;1.80;;;;;;;13.03;77.82;98709.69;5090164;28;43857;-85
2021/09/19 05:29:42;;;;;;;2.80;1.50;;;;;;;13.10;77.59;98710.94;5106086;28;41186;-84
2021/09/19 05:32:10;;;;;;;1.63;1.13;;;;;;;13.28;77.27;98714.88;5089649;28;40072;-80
2021/09/19 05:34:37;;;;;;;1.60;1.47;;;;;;;13.41;76.40;98722.78;5089892;28;40840;-83
2021/09/19 05:37:06;;;;;;;0.97;0.90;;;;;;;13.54;76.70;98733.34;5089533;28;43043;-83
2021/09/19 05:39:34;;;;;;;2.03;1.13;;;;;;;13.57;76.12;98725.13;5088991;28;42569;-84
2021/09/19 05:42:02;;;;;;;1.97;1.53;;;;;;;13.69;75.90;98726.84;5088589;28;40025;-82
2021/09/19 05:44:31;;;;;;;1.90;1.10;;;;;;;13.81;75.69;98741.88;5089275;28;40620;-80
2021/09/19 05:46:58;;;;;;;1.57;1.00;;;;;;;13.89;75.11;98739.44;5068703;28;41466;-83
2021/09/19 05:49:26;;;;;;;1.77;1.30;;;;;;;13.97;74.64;98747.66;5070722;28;41602;-83
2021/09/19 05:51:53;;;;;;;1.53;1.30;;;;;;;13.98;74.58;98744.03;5088616;28;39098;-79
2021/09/19 05:54:21;;;;;;;1.77;1.33;;;;;;;14.10;74.61;98741.38;5070813;28;40593;-80
2021/09/19 05:56:49;;;;;;;1.40;1.17;;;;;;;14.14;74.30;98738.38;5089194;28;41799;-84
2021/09/19 05:59:16;;;;;;;1.23;1.00;;;;;;;14.25;74.25;98737.50;5088951;28;41305;-81
2021/09/19 06:01:45;;;;;;;1.87;1.20;;;;;;;14.33;73.60;98743.97;5087939;28;40743;-80
2021/09/19 06:04:13;;;;;;;2.30;1.37;;;;;;;14.35;73.50;98733.16;5072360;28;41031;-81
2021/09/19 06:06:41;;;;;;;1.40;1.30;;;;;;;14.47;73.46;98742.84;5088539;28;43176;-82
2021/09/19 06:09:09;;;;;;;2.00;1.23;;;;;;;14.50;72.86;98739.94;5084554;28;42457;-84
2021/09/19 06:11:36;;;;;;;1.73;1.50;;;;;;;14.58;72.91;98745.53;5069142;28;40038;-82
2021/09/19 06:14:04;;;;;;;1.73;1.43;;;;;;;14.65;72.71;98749.38;5087727;28;42108;-80
2021/09/19 06:16:32;;;;;;;1.57;1.17;;;;;;;14.74;72.17;98753.13;5088136;28;41614;-84
2021/09/19 06:19:01;;;;;;;1.87;1.23;;;;;;;14.78;71.79;98753.72;5071399;28;40984;-82
2021/09/19 06:21:29;;;;;;;1.87;1.30;;;;;;;14.80;71.97;98751.78;5087781;28;41120;-83
2021/09/19 06:23:57;;;;;;;2.10;1.37;;;;;;;14.77;71.43;98733.38;5070186;28;40847;-80
2021/09/19 06:26:24;;;;;;;2.23;1.40;;;;;;;14.90;71.11;98747.38;5068367;28;41827;-83
2021/09/19 06:28:52;;;;;;;1.50;1.30;;;;;;;15.01;71.35;98750.03;5071950;28;41380;-81
2021/09/19 06:31:22;;;;;;;1.33;1.23;;;;;;;15.10;70.84;98749.25;5071032;28;39292;-80
2021/09/19 06:33:50;;;;;;;1.57;1.10;;;;;;;15.20;70.59;98760.03;5087857;28;41982;-84
2021/09/19 06:36:19;;;;;;;1.60;1.50;;;;;;;15.24;70.43;98751.63;5088597;28;42977;-84
2021/09/19 06:38:47;;;;;;;1.63;1.33;;;;;;;15.44;70.17;98764.16;5071016;28;42216;-82
2021/09/19 06:41:14;;;;;;;1.60;1.23;;;;;;;15.45;69.73;98749.81;5087009;28;39081;-81
2021/09/19 06:43:42;;;;;;;1.40;1.30;;;;;;;15.66;69.39;98757.03;5071074;28;40752;-84
2021/09/19 06:46:10;;;;;;;1.93;1.43;;;;;;;15.68;68.60;98744.41;5086239;28;42319;-84
2021/09/19 06:48:38;;;;;;;2.60;1.57;;;;;;;15.75;68.59;98729.56;5087840;28;42217;-84
2021/09/19 06:51:06;;;;;;;1.80;1.23;;;;;;;15.86;68.13;98732.16;5070838;28;40370;-82
2021/09/19 06:53:37;;;;;;;2.63;1.60;;;;;;;16.06;67.53;98744.66;5086256;28;41823;-85
2021/09/19 06:56:05;;;;;;;1.53;1.20;;;;;;;16.08;67.38;98731.97;5070327;28;42219;-84
2021/09/19 06:58:34;;;;;;;5.67;4.00;;;;;;;16.27;66.86;98749.09;5122091;27;42922;-82
2021/09/19 07:01:02;;;;;;;4.47;3.30;;;;;;;16.33;66.56;98746.72;5071373;28;40048;-81
2021/09/19 07:03:31;;;;;;;2.00;1.67;;;;;;;16.44;66.06;98748.47;5069287;28;41380;-83
2021/09/19 07:05:58;;;;;;;1.70;1.53;;;;;;;16.50;65.41;98750.56;5069516;28;43088;-86
2021/09/19 07:08:27;;;;;;;2.63;1.40;;;;;;;16.63;65.19;98753.91;5068345;28;42364;-83
2021/09/19 07:10:56;;;;;;;1.50;1.33;;;;;;;16.79;65.13;98754.22;5084785;28;40557;-86
2021/09/19 07:13:24;;;;;;;1.70;1.60;;;;;;;16.87;64.67;98745.50;5083270;28;40815;-82
2021/09/19 07:15:59;;;;;;;1.70;1.37;;;;;;;16.85;64.16;98715.38;5084704;28;42943;-80
2021/09/19 07:18:27;;;;;;;1.77;1.50;;;;;;;17.19;63.57;98751.44;5074183;28;43039;-86
2021/09/19 07:20:55;;;;;;;2.33;1.50;;;;;;;17.32;62.87;98759.19;5068673;28;38964;-80
2021/09/19 07:23:25;;;;;;;1.53;1.07;;;;;;;17.37;63.15;98740.88;5069223;28;41477;-83
2021/09/19 07:25:54;;;;;;;1.60;1.40;;;;;;;17.54;62.55;98747.38;5085985;28;43460;-81
2021/09/19 07:28:24;;;;;;;1.60;1.50;;;;;;;17.74;62.02;98764.28;5086669;28;42313;-81
2021/09/19 07:30:52;;;;;;;2.07;1.30;;;;;;;17.89;61.50;98762.84;5065535;28;39538;-83
2021/09/19 07:33:21;;;;;;;1.43;1.33;;;;;;;17.76;61.09;98735.53;5069358;28;40796;-81
2021/09/19 07:35:50;;;;;;;1.33;1.23;;;;;;;17.78;59.83;98746.94;5066634;28;41863;-83
2021/09/19 07:38:21;;;;;;;2.03;1.43;;;;;;;17.94;59.74;98768.59;5065097;28;41677;-82
2021/09/19 07:40:50;;;;;;;1.83;1.33;;;;;;;18.04;59.80;98768.63;5065886;28;39262;-84
2021/09/19 07:43:18;;;;;;;1.50;1.40;;;;;;;18.01;58.97;98768.91;5067816;28;40963;-83
2021/09/19 07:45:48;;;;;;;1.70;1.37;;;;;;;18.02;58.99;98759.88;5068667;28;42293;-81
2021/09/19 07:48:17;;;;;;;1.70;1.60;;;;;;;18.20;59.03;98780.41;5069025;28;41324;-80
2021/09/19 07:50:45;;;;;;;1.60;1.50;;;;;;;18.28;58.35;98788.56;5069269;28;40305;-84
2021/09/19 07:53:14;;;;;;;2.90;1.40;;;;;;;18.28;57.69;98793.09;5067549;28;41549;-82
2021/09/19 07:55:41;;;;;;;1.30;1.20;;;;;;;18.35;58.40;98790.66;5068256;28;42212;-81
2021/09/19 07:58:09;;;;;;;1.60;1.27;;;;;;;18.42;58.73;98783.72;5085781;28;43241;-81
2021/09/19 08:00:37;;;;;;;1.43;1.33;;;;;;;18.46;58.57;98772.53;5069891;28;40270;-84
2021/09/19 08:03:06;;;;;;;1.63;1.50;;;;;;;18.55;57.69;98776.16;5070409;28;41001;-81
2021/09/19 08:05:34;;;;;;;2.30;1.67;;;;;;;18.76;57.61;98795.59;5065907;28;43199;-84
2021/09/19 08:08:02;;;;;;;1.93;1.57;;;;;;;18.92;56.81;98801.13;5086178;28;42173;-85
2021/09/19 08:10:29;;;;;;;1.47;1.37;;;;;;;19.13;56.42;98806.25;5068337;28;40287;-80
2021/09/19 08:12:57;;;;;;;1.43;1.23;;;;;;;19.27;56.50;98791.47;5086702;28;40815;-83
2021/09/19 08:15:24;;;;;;;1.27;1.17;;;;;;;19.40;55.12;98812.59;5068117;28;41933;-83
2021/09/19 08:17:53;;;;;;;1.33;1.23;;;;;;;19.44;55.77;98798.69;5086434;28;42686;-82
2021/09/19 08:20:22;;;;;;;1.80;1.40;;;;;;;19.68;55.20;98811.53;5068758;28;39426;-83
2021/09/19 08:22:50;;;;;;;1.83;1.40;;;;;;;19.85;54.09;98812.53;5085074;28;40745;-82
2021/09/19 08:25:18;;;;;;;2.33;1.60;;;;;;;19.96;53.74;98820.34;5069144;28;42907;-85
2021/09/19 08:27:46;;;;;;;2.10;1.43;;;;;;;20.08;53.10;98819.09;5068820;28;42700;-85
2021/09/19 08:30:16;;;;;;;1.27;1.10;;;;;;;20.21;52.83;98813.28;5067295;28;39866;-83
2021/09/19 08:32:44;;;;;;;1.63;1.37;;;;;;;20.70;51.29;98830.59;5085081;28;42636;-82
2021/09/19 08:35:14;;;;;;;1.57;1.40;;;;;;;21.13;50.99;98817.00;5085418;28;43156;-83
2021/09/19 08:37:43;;;;;;;1.47;1.10;;;;;;;21.25;50.80;98808.63;5068481;28;41710;-85
2021/09/19 08:40:14;;;;;;;1.73;1.60;;;;;;;21.46;50.90;98811.72;5067570;28;39914;-83
2021/09/19 08:42:44;;;;;;;1.87;1.20;;;;;;;21.59;50.18;98819.31;5081805;28;41980;-85
2021/09/19 08:45:13;;;;;;;1.47;1.37;;;;;;;21.73;49.37;98830.28;5065755;28;43391;-81
2021/09/19 08:47:41;;;;;;;3.07;2.63;;;;;;;21.85;49.03;98818.16;5084304;28;42680;-80
2021/09/19 08:50:11;;;;;;;1.23;1.13;;;;;;;22.35;48.21;98819.84;5083892;28;40099;-85
2021/09/19 08:52:40;;;;;;;1.00;1.00;;;;;;;22.66;47.80;98825.31;5081161;28;41251;-81
2021/09/19 08:55:12;;;;;;;1.47;1.30;;;;;;;22.79;46.70;98838.28;5066920;28;42175;-85
2021/09/19 08:57:40;;;;;;;0.90;0.90;;;;;;;22.70;46.50;98807.75;5084133;28;41816;-86
2021/09/19 09:00:11;;;;;;;1.37;1.30;;;;;;;22.78;45.93;98823.09;5099596;27;39521;-83
2021/09/19 09:02:48;;;;;;;1.30;1.10;;;;;;;22.88;47.14;98815.63;5087048;28;42086;-86
2021/09/19 09:05:22;;;;;;;1.30;1.20;;;;;;;23.03;46.27;98843.59;5085894;28;42517;-86
2021/09/19 09:07:53;;;;;;;2.53;1.37;;;;;;;23.03;46.67;98832.81;5083613;28;41922;-85
2021/09/19 09:10:42;;;;;;;1.67;1.20;;;;;;;23.05;46.13;98833.47;5064667;28;39096;-85
2021/09/19 09:13:12;;;;;;;1.30;1.00;;;;;;;23.03;46.32;98834.66;5061490;28;41184;-83
2021/09/19 09:15:43;;;;;;;1.20;1.07;;;;;;;22.88;47.04;98821.03;5080529;28;42533;-81
2021/09/19 09:18:14;;;;;;;0.90;0.90;;;;;;;22.78;46.43;98842.00;5064970;28;44264;-81
2021/09/19 09:20:51;;;;;;;1.23;1.13;;;;;;;22.39;46.92;98796.88;5093841;28;38935;-85
2021/09/19 09:23:27;;;;;;;1.47;1.17;;;;;;;22.46;47.23;98822.16;5066398;28;41469;-81
2021/09/19 09:26:15;;;;;;;1.00;0.90;;;;;;;22.14;46.99;98773.66;5063627;28;42646;-82
2021/09/19 09:28:46;;;;;;;1.33;1.17;;;;;;;22.17;46.85;98801.13;5065098;28;42766;-83
2021/09/19 09:31:19;;;;;;;11.27;6.67;;;;;;;22.19;47.54;98826.09;5070076;28;39254;-79
2021/09/19 09:34:07;;;;;;;3.47;2.87;;;;;;;22.15;47.43;98829.28;5069633;28;40853;-84
2021/09/19 09:36:39;;;;;;;1.57;1.40;;;;;;;22.21;47.56;98817.81;5093255;28;42466;-81
2021/09/19 09:39:29;;;;;;;1.47;1.00;;;;;;;22.48;47.63;98819.31;5086700;28;41237;-81
2021/09/19 09:42:00;;;;;;;1.90;1.30;;;;;;;22.79;46.71;98817.53;5087266;28;39839;-86
2021/09/19 09:44:34;;;;;;;1.20;1.10;;;;;;;22.87;45.89;98808.59;5072274;28;41195;-84
2021/09/19 09:47:03;;;;;;;1.07;0.97;;;;;;;23.14;46.08;98821.59;5087828;28;42794;-83
2021/09/19 09:49:44;;;;;;;1.13;1.03;;;;;;;23.35;45.63;98828.28;5084833;28;41333;-82
2021/09/19 09:52:13;;;;;;;1.80;1.17;;;;;;;23.78;44.85;98824.13;5085652;28;38930;-83
2021/09/19 09:54:47;;;;;;;1.20;1.10;;;;;;;24.08;43.44;98820.50;5087690;28;42459;-80
2021/09/19 09:57:33;;;;;;;1.00;0.90;;;;;;;24.20;43.13;98818.19;5087358;28;42924;-80
2021/09/19 10:00:01;;;;;;;1.20;0.97;;;;;;;24.44;42.43;98831.53;5088010;28;42164;-83
2021/09/19 10:02:34;;;;;;;2.70;1.63;;;;;;;24.15;42.25;98847.66;5087561;28;38946;-84
2021/09/19 10:05:02;;;;;;;1.20;1.10;;;;;;;23.72;43.62;98825.69;5071244;28;40909;-83
2021/09/19 10:07:30;;;;;;;1.50;1.40;;;;;;;23.50;44.71;98812.94;5086384;28;42958;-79
2021/09/19 10:09:59;;;;;;;1.20;1.10;;;;;;;23.45;44.95;98810.81;5088226;28;42059;-83
2021/09/19 10:12:28;;;;;;;0.83;0.83;;;;;;;23.65;44.72;98822.00;5071262;28;39189;-83
2021/09/19 10:14:57;;;;;;;1.00;0.90;;;;;;;23.67;43.59;98833.50;5088574;28;42771;-82
2021/09/19 10:17:27;;;;;;;1.00;0.90;;;;;;;24.21;43.82;98828.84;5066641;28;43199;-83
2021/09/19 10:19:56;;;;;;;1.60;1.20;;;;;;;24.70;41.89;98847.31;5067398;28;42495;-84
2021/09/19 10:22:27;;;;;;;1.90;1.40;;;;;;;24.97;41.09;98837.75;5087916;28;40858;-81
2021/09/19 10:24:55;;;;;;;1.17;0.93;;;;;;;25.44;41.06;98833.72;5070429;28;41216;-82
2021/09/19 10:27:30;;;;;;;1.40;1.30;;;;;;;25.99;39.98;98838.50;5069838;28;41802;-84
2021/09/19 10:30:01;;;;;;;1.13;1.03;;;;;;;26.55;38.76;98841.31;5070797;28;42503;-83
2021/09/19 10:32:37;;;;;;;1.20;1.10;;;;;;;27.19;38.44;98836.47;5054019;28;38746;-82
2021/09/19 10:35:28;;;;;;;1.40;1.10;;;;;;;26.49;37.95;98856.50;5068007;28;41029;-83
2021/09/19 10:38:00;;;;;;;1.07;1.00;;;;;;;25.86;39.43;98832.94;5050839;28;41544;-82
2021/09/19 10:40:34;;;;;;;1.23;1.13;;;;;;;25.46;39.56;98828.97;5071288;28;41472;-83
2021/09/19 10:43:03;;;;;;;0.90;0.90;;;;;;;24.74;40.43;98818.81;5088092;28;39024;-81
2021/09/19 10:45:42;;;;;;;0.80;0.80;;;;;;;24.50;41.89;98802.84;5086995;28;43086;-80
2021/09/19 10:48:17;;;;;;;1.53;1.03;;;;;;;24.57;41.61;98820.88;5087221;28;43355;-81
2021/09/19 10:50:45;;;;;;;1.87;1.23;;;;;;;24.69;41.82;98815.84;5120673;27;42453;-79
2021/09/19 10:53:27;;;;;;;0.90;0.90;;;;;;;24.70;41.88;98821.09;5087613;28;40144;-82
2021/09/19 10:55:57;;;;;;;1.00;1.00;;;;;;;24.52;41.92;98803.50;5085948;28;42014;-82
2021/09/19 10:58:29;;;;;;;1.27;1.17;;;;;;;24.56;42.31;98808.38;5087419;28;43165;-81
2021/09/19 11:01:15;;;;;;;1.23;0.90;;;;;;;24.50;41.58;98802.84;5087298;28;42283;-83
2021/09/19 11:03:44;;;;;;;1.30;0.90;;;;;;;24.40;41.99;98813.94;5086488;28;39162;-81
2021/09/19 11:06:23;;;;;;;0.90;0.90;;;;;;;24.26;42.04;98818.31;5069214;28;40841;-84
2021/09/19 11:08:51;;;;;;;1.27;1.10;;;;;;;24.07;42.28;98799.03;5087839;28;42994;-83
2021/09/19 11:11:28;;;;;;;0.83;0.80;;;;;;;23.98;42.65;98807.19;5069174;28;41225;-84
2021/09/19 11:14:06;;;;;;;1.33;1.20;;;;;;;23.86;42.64;98799.72;5065875;28;39193;-82
2021/09/19 11:16:41;;;;;;;1.10;1.00;;;;;;;23.61;43.24;98790.97;5071462;28;42555;-83
2021/09/19 11:19:12;;;;;;;1.23;1.00;;;;;;;23.48;42.90;98801.50;5073948;28;43012;-83
2021/09/19 11:21:46;;;;;;;1.20;1.10;;;;;;;23.26;43.84;98797.72;5090065;28;42487;-84
2021/09/19 11:24:19;;;;;;;1.50;1.30;;;;;;;23.11;43.82;98784.16;5091756;28;39862;-81
2021/09/19 11:26:56;;;;;;;0.93;0.90;;;;;;;23.06;43.43;98799.19;5094056;28;41856;-81
2021/09/19 11:29:28;;;;;;;0.80;0.80;;;;;;;22.89;44.21;98795.72;5114491;28;43909;-83
2021/09/19 11:31:59;;;;;;;1.20;1.10;;;;;;;22.83;44.49;98793.75;5113333;28;42162;-84
2021/09/19 11:34:28;;;;;;;1.20;1.03;;;;;;;22.73;44.84;98782.28;5114039;28;39994;-81
2021/09/19 11:36:58;;;;;;;1.77;1.27;;;;;;;22.69;45.81;98781.78;5113904;28;41689;-84
2021/09/19 11:39:32;;;;;;;1.20;1.10;;;;;;;22.45;45.05;98763.81;5104134;28;42830;-80
2021/09/19 11:42:06;;;;;;;1.83;1.60;;;;;;;22.40;45.33;98779.66;5078811;28;42196;-80
2021/09/19 11:44:36;;;;;;;1.10;1.00;;;;;;;22.49;45.08;98789.44;5082883;28;40042;-81